createdAt,value
2023-02-25T00:01:08.478Z,11.42
2023-02-25T00:03:36.061Z,11.40
2023-02-25T00:06:03.968Z,11.40
2023-02-25T00:08:30.774Z,11.40
2023-02-25T00:11:05.347Z,11.43
2023-02-25T00:13:32.148Z,11.39
2023-02-25T00:15:59.267Z,11.38
2023-02-25T00:18:26.920Z,11.36
2023-02-25T00:20:54.169Z,11.36
2023-02-25T00:23:21.025Z,11.40
2023-02-25T00:25:48.126Z,11.39
2023-02-25T00:28:14.973Z,11.36
2023-02-25T00:30:44.921Z,11.33
2023-02-25T00:33:11.705Z,11.37
2023-02-25T00:35:40.312Z,11.37
2023-02-25T00:38:15.779Z,11.37
2023-02-25T00:40:43.538Z,11.34
2023-02-25T00:43:10.648Z,11.33
2023-02-25T00:45:39.544Z,11.34
2023-02-25T00:48:07.037Z,11.31
2023-02-25T00:50:34.815Z,11.34
2023-02-25T00:53:01.579Z,11.29
2023-02-25T00:55:33.365Z,11.28
2023-02-25T00:58:01.247Z,11.28
2023-02-25T01:00:29.289Z,11.22
2023-02-25T01:02:57.238Z,11.27
2023-02-25T01:05:24.698Z,11.26
2023-02-25T01:07:51.837Z,11.26
2023-02-25T01:10:19.139Z,11.25
2023-02-25T01:12:45.935Z,11.22
2023-02-25T01:15:13.332Z,11.22
2023-02-25T01:17:40.250Z,11.23
2023-02-25T01:20:12.162Z,11.20
2023-02-25T01:22:41.837Z,11.22
2023-02-25T01:25:13.276Z,11.17
2023-02-25T01:27:40.056Z,11.15
2023-02-25T01:30:08.286Z,11.20
2023-02-25T01:32:35.335Z,11.11
2023-02-25T01:35:02.445Z,11.18
2023-02-25T01:37:29.325Z,11.14
2023-02-25T01:39:56.510Z,11.09
2023-02-25T01:42:24.084Z,11.12
2023-02-25T01:45:19.442Z,11.08
2023-02-25T01:48:10.410Z,11.08
2023-02-25T01:50:44.017Z,11.12
2023-02-25T01:53:10.913Z,11.08
2023-02-25T01:55:39.133Z,11.06
2023-02-25T01:58:05.867Z,11.01
2023-02-25T02:00:32.933Z,11.01
2023-02-25T02:02:59.800Z,11.05
2023-02-25T02:05:42.517Z,11.04
2023-02-25T02:08:09.514Z,10.99
2023-02-25T02:10:36.552Z,11.02
2023-02-25T02:13:03.302Z,10.98
2023-02-25T02:15:31.549Z,11.04
2023-02-25T02:17:59.571Z,11.03
2023-02-25T02:20:57.564Z,10.97
2023-02-25T02:23:58.080Z,11.00
2023-02-25T02:26:49.416Z,10.99
2023-02-25T02:30:00.789Z,10.98
2023-02-25T02:32:40.674Z,11.02
2023-02-25T02:35:18.979Z,10.95
2023-02-25T02:38:14.628Z,10.98
2023-02-25T02:40:47.960Z,10.99
2023-02-25T02:43:17.996Z,10.97
2023-02-25T02:45:49.803Z,10.92
2023-02-25T02:48:33.954Z,10.96
2023-02-25T02:51:02.161Z,10.97
2023-02-25T02:53:32.521Z,10.93
2023-02-25T02:56:00.495Z,10.93
2023-02-25T02:58:29.628Z,10.92
2023-02-25T03:01:07.085Z,10.91
2023-02-25T03:03:41.312Z,10.91
2023-02-25T03:06:09.499Z,10.85
2023-02-25T03:08:44.725Z,10.86
2023-02-25T03:11:12.135Z,10.89
2023-02-25T03:13:39.578Z,10.87
2023-02-25T03:16:10.234Z,10.85
2023-02-25T03:18:43.952Z,10.83
2023-02-25T03:21:15.983Z,10.81
2023-02-25T03:23:43.239Z,10.77
2023-02-25T03:26:22.626Z,10.77
2023-02-25T03:28:49.919Z,10.75
2023-02-25T03:31:25.027Z,10.69
2023-02-25T03:33:58.230Z,10.64
2023-02-25T03:36:42.902Z,10.60
2023-02-25T03:39:29.129Z,10.57
2023-02-25T03:41:58.530Z,10.58
2023-02-25T03:44:28.327Z,10.59
2023-02-25T03:46:55.152Z,10.58
2023-02-25T03:49:31.453Z,10.57
2023-02-25T03:51:58.295Z,10.58
2023-02-25T03:54:25.342Z,10.55
2023-02-25T03:56:52.076Z,10.52
2023-02-25T03:59:19.412Z,10.51
2023-02-25T04:01:47.277Z,10.44
2023-02-25T04:04:14.496Z,10.49
2023-02-25T04:06:41.562Z,10.46
2023-02-25T04:09:08.600Z,10.47
2023-02-25T04:11:35.399Z,10.46
2023-02-25T04:14:02.415Z,10.45
2023-02-25T04:16:29.143Z,10.43
2023-02-25T04:18:56.172Z,10.40
2023-02-25T04:21:31.393Z,10.40
2023-02-25T04:23:58.648Z,10.39
2023-02-25T04:26:25.663Z,10.36
2023-02-25T04:28:52.954Z,10.35
2023-02-25T04:31:20.242Z,10.34
2023-02-25T04:33:50.067Z,10.33
2023-02-25T04:36:30.699Z,10.30
2023-02-25T04:39:01.564Z,10.24
2023-02-25T04:41:30.132Z,10.24
2023-02-25T04:43:57.243Z,10.26
2023-02-25T04:46:24.307Z,10.23
2023-02-25T04:48:51.650Z,10.20
2023-02-25T04:51:18.579Z,10.16
2023-02-25T04:53:46.961Z,10.15
2023-02-25T04:56:13.892Z,10.14
2023-02-25T04:58:40.972Z,10.10
2023-02-25T05:01:09.165Z,10.10
2023-02-25T05:03:36.385Z,10.08
2023-02-25T05:06:03.578Z,10.07
2023-02-25T05:08:30.652Z,10.05
2023-02-25T05:10:57.449Z,10.05
2023-02-25T05:13:24.571Z,10.02
2023-02-25T05:15:51.531Z,9.98
2023-02-25T05:18:18.715Z,9.97
2023-02-25T05:20:46.441Z,9.94
2023-02-25T05:23:14.042Z,9.91
2023-02-25T05:25:41.283Z,9.89
2023-02-25T05:28:09.376Z,9.90
2023-02-25T05:30:36.944Z,9.86
2023-02-25T05:33:04.648Z,9.78
2023-02-25T05:35:32.591Z,9.79
2023-02-25T05:37:59.990Z,9.75
2023-02-25T05:40:26.996Z,9.74
2023-02-25T05:42:54.096Z,9.77
2023-02-25T05:45:20.864Z,9.74
2023-02-25T05:47:47.985Z,9.71
2023-02-25T05:50:14.743Z,9.73
2023-02-25T05:52:42.083Z,9.67
2023-02-25T05:55:09.543Z,9.65
2023-02-25T05:57:36.878Z,9.64
2023-02-25T06:00:07.220Z,9.62
2023-02-25T06:02:34.318Z,9.59
2023-02-25T06:05:01.273Z,9.61
2023-02-25T06:07:33.328Z,9.56
2023-02-25T06:10:00.997Z,9.55
2023-02-25T06:12:28.814Z,9.55
2023-02-25T06:14:55.619Z,9.55
2023-02-25T06:17:24.711Z,9.56
2023-02-25T06:19:52.280Z,9.54
2023-02-25T06:22:20.040Z,9.52
2023-02-25T06:24:46.836Z,9.53
2023-02-25T06:27:14.400Z,9.52
2023-02-25T06:29:41.798Z,9.49
2023-02-25T06:32:10.184Z,9.40
2023-02-25T06:34:37.564Z,9.42
2023-02-25T06:37:04.649Z,9.42
2023-02-25T06:39:31.403Z,9.41
2023-02-25T06:41:58.584Z,9.43
2023-02-25T06:44:27.020Z,9.33
2023-02-25T06:46:56.739Z,9.23
2023-02-25T06:49:23.893Z,9.19
2023-02-25T06:51:50.963Z,9.22
2023-02-25T06:54:18.075Z,9.26
2023-02-25T06:56:45.295Z,9.17
2023-02-25T06:59:12.136Z,9.17
2023-02-25T07:01:39.269Z,9.15
2023-02-25T07:04:06.135Z,9.10
2023-02-25T07:06:33.258Z,9.10
2023-02-25T07:09:00.014Z,9.14
2023-02-25T07:11:30.141Z,9.08
2023-02-25T07:13:57.024Z,9.08
2023-02-25T07:16:24.349Z,9.04
2023-02-25T07:18:51.375Z,9.05
2023-02-25T07:21:18.673Z,9.10
2023-02-25T07:23:46.538Z,9.05
2023-02-25T07:26:14.038Z,9.01
2023-02-25T07:28:40.824Z,9.03
2023-02-25T07:31:12.371Z,9.04
2023-02-25T07:33:39.216Z,9.04
2023-02-25T07:36:06.287Z,8.99
2023-02-25T07:38:33.028Z,9.00
2023-02-25T07:41:13.958Z,8.97
2023-02-25T07:43:40.915Z,8.99
2023-02-25T07:46:08.698Z,8.98
2023-02-25T07:48:35.757Z,9.01
2023-02-25T07:51:13.330Z,9.04
2023-02-25T07:53:40.135Z,9.04
2023-02-25T07:56:07.635Z,9.04
2023-02-25T07:58:34.538Z,9.06
2023-02-25T08:01:03.512Z,9.05
2023-02-25T08:03:30.431Z,9.05
2023-02-25T08:05:57.556Z,9.09
2023-02-25T08:08:24.332Z,9.11
2023-02-25T08:10:51.606Z,9.13
2023-02-25T08:13:19.397Z,9.12
2023-02-25T08:15:46.626Z,9.13
2023-02-25T08:18:13.398Z,9.15
2023-02-25T08:20:40.477Z,9.17
2023-02-25T08:23:07.325Z,9.17
2023-02-25T08:25:34.382Z,9.20
2023-02-25T08:28:01.320Z,9.21
2023-02-25T08:30:28.541Z,9.22
2023-02-25T08:32:55.381Z,9.22
2023-02-25T08:35:22.482Z,9.24
2023-02-25T08:37:49.309Z,9.24
2023-02-25T08:40:18.526Z,9.22
2023-02-25T08:42:46.686Z,9.24
2023-02-25T08:45:13.747Z,9.22
2023-02-25T08:47:40.451Z,9.27
2023-02-25T08:50:08.316Z,9.29
2023-02-25T08:52:35.096Z,9.28
2023-02-25T08:55:02.688Z,9.28
2023-02-25T08:57:29.634Z,9.25
2023-02-25T08:59:56.669Z,9.25
2023-02-25T09:02:24.348Z,9.27
2023-02-25T09:04:51.722Z,9.29
2023-02-25T09:07:18.475Z,9.29
2023-02-25T09:09:45.670Z,9.33
2023-02-25T09:12:12.435Z,9.36
2023-02-25T09:14:39.514Z,9.36
2023-02-25T09:17:07.466Z,9.37
2023-02-25T09:19:34.501Z,9.41
2023-02-25T09:22:01.575Z,9.40
2023-02-25T09:24:30.100Z,9.43
2023-02-25T09:26:56.910Z,9.47
2023-02-25T09:29:24.000Z,9.47
2023-02-25T09:31:51.074Z,9.51
2023-02-25T09:34:18.392Z,9.51
2023-02-25T09:36:45.239Z,9.53
2023-02-25T09:39:12.960Z,9.52
2023-02-25T09:42:01.803Z,9.54
2023-02-25T09:44:34.238Z,9.51
2023-02-25T09:47:25.953Z,9.56
2023-02-25T09:50:00.135Z,9.53
2023-02-25T09:52:32.016Z,9.53
2023-02-25T09:55:06.971Z,9.53
2023-02-25T09:57:38.585Z,9.52
2023-02-25T10:00:18.088Z,9.51
2023-02-25T10:02:50.148Z,9.47
2023-02-25T10:05:26.981Z,9.49
2023-02-25T10:08:02.791Z,9.48
2023-02-25T10:10:47.234Z,9.46
2023-02-25T10:13:32.767Z,9.44
2023-02-25T10:16:12.191Z,9.42
2023-02-25T10:18:56.027Z,9.42
2023-02-25T10:21:43.431Z,9.40
2023-02-25T10:24:29.006Z,9.42
2023-02-25T10:27:03.731Z,9.45
2023-02-25T10:29:35.642Z,9.51
2023-02-25T10:32:16.390Z,9.50
2023-02-25T10:34:43.369Z,9.51
2023-02-25T10:37:15.586Z,9.50
2023-02-25T10:39:42.409Z,9.49
2023-02-25T10:42:10.760Z,9.44
2023-02-25T10:44:37.592Z,9.47
2023-02-25T10:47:05.269Z,9.48
2023-02-25T10:49:38.278Z,9.45
2023-02-25T10:52:06.351Z,9.50
2023-02-25T10:54:34.942Z,9.49
2023-02-25T10:57:08.476Z,9.55
2023-02-25T10:59:38.491Z,9.53
2023-02-25T11:02:21.268Z,9.49
2023-02-25T11:04:48.519Z,9.49
2023-02-25T11:07:37.570Z,9.55
2023-02-25T11:10:20.487Z,9.53
2023-02-25T11:12:55.319Z,9.50
2023-02-25T11:15:46.123Z,9.51
2023-02-25T11:18:24.249Z,9.55
2023-02-25T11:20:56.046Z,9.51
2023-02-25T11:23:43.399Z,9.53
2023-02-25T11:26:18.336Z,9.49
2023-02-25T11:28:46.810Z,9.52
2023-02-25T11:31:30.048Z,9.51
2023-02-25T11:33:59.392Z,9.55
2023-02-25T11:36:33.892Z,9.58
2023-02-25T11:39:32.568Z,9.74
2023-02-25T11:42:02.337Z,9.75
2023-02-25T11:44:30.269Z,9.73
2023-02-25T11:47:06.045Z,9.72
2023-02-25T11:49:42.870Z,9.64
2023-02-25T11:52:14.494Z,9.65
2023-02-25T11:55:19.097Z,9.60
2023-02-25T11:58:33.367Z,9.65
2023-02-25T12:01:14.692Z,9.69
2023-02-25T12:04:03.539Z,9.66
2023-02-25T12:06:46.046Z,9.59
2023-02-25T12:09:46.774Z,9.65
2023-02-25T12:12:19.952Z,9.58
2023-02-25T12:15:07.587Z,9.60
2023-02-25T12:18:22.305Z,9.56
2023-02-25T12:20:54.945Z,9.54
2023-02-25T12:23:49.852Z,9.55
2023-02-25T12:26:31.708Z,9.54
2023-02-25T12:29:07.740Z,9.53
2023-02-25T12:31:53.931Z,9.53
2023-02-25T12:34:33.297Z,9.53
2023-02-25T12:37:18.882Z,9.54
2023-02-25T12:40:08.162Z,9.59
2023-02-25T12:42:53.882Z,9.52
2023-02-25T12:45:34.031Z,9.61
2023-02-25T12:48:00.872Z,9.64
2023-02-25T12:50:45.966Z,9.58
2023-02-25T12:53:21.794Z,9.60
2023-02-25T12:56:16.100Z,9.61
2023-02-25T12:59:31.043Z,9.57
2023-02-25T13:02:19.622Z,9.57
2023-02-25T13:05:08.950Z,9.54
2023-02-25T13:08:10.130Z,9.54
2023-02-25T13:11:01.876Z,9.53
2023-02-25T13:13:53.742Z,9.59
2023-02-25T13:16:35.506Z,9.58
2023-02-25T13:19:43.540Z,9.55
2023-02-25T13:22:16.346Z,9.68
2023-02-25T13:24:57.062Z,9.62
2023-02-25T13:27:52.261Z,9.57
2023-02-25T13:30:29.843Z,9.57
2023-02-25T13:33:21.727Z,9.55
2023-02-25T13:36:09.992Z,9.64
2023-02-25T13:39:22.048Z,9.67
2023-02-25T13:41:55.154Z,9.71
2023-02-25T13:44:42.451Z,9.64
2023-02-25T13:47:25.216Z,9.65
2023-02-25T13:50:23.127Z,9.63
2023-02-25T13:53:26.229Z,9.65
2023-02-25T13:56:08.051Z,9.60
2023-02-25T13:58:55.645Z,9.63
2023-02-25T14:01:45.137Z,9.59
2023-02-25T14:04:49.392Z,9.61
2023-02-25T14:07:56.944Z,9.63
2023-02-25T14:10:36.123Z,9.59
2023-02-25T14:13:39.572Z,9.59
2023-02-25T14:16:18.784Z,9.53
2023-02-25T14:19:00.695Z,9.60
2023-02-25T14:21:37.026Z,9.64
2023-02-25T14:24:19.304Z,9.63
2023-02-25T14:27:02.594Z,9.56
2023-02-25T14:29:35.626Z,9.55
2023-02-25T14:32:33.708Z,9.55
2023-02-25T14:35:06.455Z,9.55
2023-02-25T14:37:42.766Z,9.55
2023-02-25T14:40:15.808Z,9.54
2023-02-25T14:42:49.174Z,9.53
2023-02-25T14:45:20.400Z,9.54
2023-02-25T14:47:58.702Z,9.55
2023-02-25T14:50:28.469Z,9.52
2023-02-25T14:53:31.076Z,9.53
2023-02-25T14:56:43.136Z,9.53
2023-02-25T14:59:34.678Z,9.57
2023-02-25T15:02:14.492Z,9.59
2023-02-25T15:04:59.910Z,9.54
2023-02-25T15:07:39.635Z,9.53
2023-02-25T15:10:33.080Z,9.56
2023-02-25T15:13:00.048Z,9.51
2023-02-25T15:16:02.699Z,9.51
2023-02-25T15:18:49.648Z,9.48
2023-02-25T15:21:29.324Z,9.49
2023-02-25T15:23:56.460Z,9.43
2023-02-25T15:26:39.079Z,9.45
2023-02-25T15:29:06.064Z,9.52
2023-02-25T15:31:34.265Z,9.57
2023-02-25T15:34:23.047Z,9.60
2023-02-25T15:36:51.959Z,9.58
2023-02-25T15:39:49.079Z,9.47
2023-02-25T15:42:16.444Z,9.40
2023-02-25T15:44:44.213Z,9.55
2023-02-25T15:47:25.563Z,9.47
2023-02-25T15:49:52.733Z,9.51
2023-02-25T15:52:55.404Z,9.45
2023-02-25T15:55:36.625Z,9.38
2023-02-25T15:58:30.355Z,9.40
2023-02-25T16:01:06.840Z,9.31
2023-02-25T16:03:36.894Z,9.40
2023-02-25T16:06:20.402Z,9.42
2023-02-25T16:08:47.563Z,9.36
2023-02-25T16:11:34.392Z,9.29
2023-02-25T16:14:04.429Z,9.38
2023-02-25T16:16:31.416Z,9.36
2023-02-25T16:18:58.575Z,9.32
2023-02-25T16:21:38.749Z,9.28
2023-02-25T16:24:10.221Z,9.23
2023-02-25T16:26:55.539Z,9.17
2023-02-25T16:29:44.228Z,9.16
2023-02-25T16:32:35.659Z,9.20
2023-02-25T16:35:24.468Z,9.19
2023-02-25T16:38:29.127Z,9.13
2023-02-25T16:40:59.076Z,9.10
2023-02-25T16:43:27.587Z,9.05
2023-02-25T16:46:02.970Z,9.05
2023-02-25T16:48:34.460Z,9.04
2023-02-25T16:51:21.900Z,8.99
2023-02-25T16:53:50.247Z,8.96
2023-02-25T16:56:20.113Z,9.02
2023-02-25T16:59:00.450Z,9.01
2023-02-25T17:01:28.706Z,9.00
2023-02-25T17:04:01.488Z,8.95
2023-02-25T17:06:28.608Z,8.92
2023-02-25T17:08:55.478Z,8.85
2023-02-25T17:11:23.188Z,8.82
2023-02-25T17:13:51.396Z,8.84
2023-02-25T17:16:29.956Z,8.90
2023-02-25T17:18:58.820Z,8.81
2023-02-25T17:21:33.715Z,8.80
2023-02-25T17:24:00.796Z,8.79
2023-02-25T17:26:28.240Z,8.77
2023-02-25T17:28:59.651Z,8.77
2023-02-25T17:31:28.578Z,8.73
2023-02-25T17:34:04.134Z,8.70
2023-02-25T17:36:33.549Z,8.77
2023-02-25T17:39:02.587Z,8.73
2023-02-25T17:41:30.494Z,8.71
2023-02-25T17:43:57.399Z,8.69
2023-02-25T17:46:36.230Z,8.70
2023-02-25T17:49:42.107Z,8.69
2023-02-25T17:52:28.217Z,8.69
2023-02-25T17:54:57.268Z,8.70
2023-02-25T17:57:24.832Z,8.68
2023-02-25T17:59:55.868Z,8.68
2023-02-25T18:02:22.963Z,8.65
2023-02-25T18:04:51.029Z,8.65
2023-02-25T18:07:28.365Z,8.63
2023-02-25T18:09:55.921Z,8.61
2023-02-25T18:12:34.624Z,8.58
2023-02-25T18:15:02.267Z,8.56
2023-02-25T18:17:33.164Z,8.57
2023-02-25T18:20:01.925Z,8.58
2023-02-25T18:22:32.071Z,8.56
2023-02-25T18:25:00.604Z,8.50
2023-02-25T18:27:30.613Z,8.51
2023-02-25T18:29:59.755Z,8.49
2023-02-25T18:32:27.479Z,8.49
2023-02-25T18:34:54.396Z,8.48
2023-02-25T18:37:21.644Z,8.48
2023-02-25T18:39:48.700Z,8.47
2023-02-25T18:42:17.093Z,8.46
2023-02-25T18:44:44.013Z,8.42
2023-02-25T18:47:11.107Z,8.43
2023-02-25T18:49:37.901Z,8.42
2023-02-25T18:52:06.301Z,8.46
2023-02-25T18:54:33.154Z,8.44
2023-02-25T18:57:00.247Z,8.41
2023-02-25T18:59:27.028Z,8.44
2023-02-25T19:01:54.148Z,8.41
2023-02-25T19:04:21.101Z,8.42
2023-02-25T19:06:48.578Z,8.40
2023-02-25T19:09:18.376Z,8.41
2023-02-25T19:11:45.502Z,8.40
2023-02-25T19:14:16.377Z,8.40
2023-02-25T19:16:43.524Z,8.35
2023-02-25T19:19:10.345Z,8.35
2023-02-25T19:21:37.426Z,8.45
2023-02-25T19:24:05.166Z,8.48
2023-02-25T19:26:32.238Z,8.45
2023-02-25T19:28:59.205Z,8.43
2023-02-25T19:31:26.393Z,8.41
2023-02-25T19:33:53.269Z,8.33
2023-02-25T19:36:20.343Z,8.30
2023-02-25T19:38:47.147Z,8.29
2023-02-25T19:41:14.458Z,8.29
2023-02-25T19:43:41.313Z,8.32
2023-02-25T19:46:08.907Z,8.33
2023-02-25T19:48:35.926Z,8.31
2023-02-25T19:51:07.557Z,8.28
2023-02-25T19:53:34.492Z,8.30
2023-02-25T19:56:03.063Z,8.29
2023-02-25T19:58:31.973Z,8.28
2023-02-25T20:01:06.426Z,8.27
2023-02-25T20:03:33.894Z,8.25
2023-02-25T20:06:08.592Z,8.26
2023-02-25T20:08:36.346Z,8.23
2023-02-25T20:11:03.383Z,8.26
2023-02-25T20:13:30.253Z,8.21
2023-02-25T20:16:01.525Z,8.20
2023-02-25T20:18:28.376Z,8.16
2023-02-25T20:20:55.485Z,8.17
2023-02-25T20:23:22.245Z,8.16
2023-02-25T20:25:49.340Z,8.16
2023-02-25T20:28:16.140Z,8.14
2023-02-25T20:30:43.276Z,8.11
2023-02-25T20:33:10.188Z,8.14
2023-02-25T20:35:37.522Z,8.10
2023-02-25T20:38:18.507Z,8.09
2023-02-25T20:40:45.739Z,8.08
2023-02-25T20:43:12.621Z,8.06
2023-02-25T20:45:40.025Z,8.07
2023-02-25T20:48:07.059Z,8.10
2023-02-25T20:50:34.562Z,8.07
2023-02-25T20:53:01.475Z,8.06
2023-02-25T20:55:28.673Z,7.99
2023-02-25T20:57:55.461Z,7.99
2023-02-25T21:00:22.570Z,8.02
2023-02-25T21:02:49.366Z,8.03
2023-02-25T21:05:16.582Z,7.99
2023-02-25T21:07:43.382Z,7.95
2023-02-25T21:10:11.194Z,7.97
2023-02-25T21:12:38.122Z,7.96
2023-02-25T21:15:05.635Z,7.92
2023-02-25T21:17:32.406Z,7.91
2023-02-25T21:19:59.506Z,7.92
2023-02-25T21:22:26.332Z,7.91
2023-02-25T21:24:53.426Z,7.89
2023-02-25T21:27:20.262Z,7.85
2023-02-25T21:29:47.415Z,7.87
2023-02-25T21:32:14.189Z,7.87
2023-02-25T21:34:41.291Z,7.88
2023-02-25T21:37:08.065Z,7.87
2023-02-25T21:39:35.127Z,7.88
2023-02-25T21:42:01.912Z,7.86
2023-02-25T21:44:29.026Z,7.83
2023-02-25T21:46:58.224Z,7.86
2023-02-25T21:49:26.249Z,7.84
2023-02-25T21:51:53.046Z,7.83
2023-02-25T21:54:20.108Z,7.80
2023-02-25T21:56:46.851Z,7.78
2023-02-25T21:59:15.313Z,7.75
2023-02-25T22:01:43.500Z,7.83
2023-02-25T22:04:11.392Z,7.88
2023-02-25T22:06:38.156Z,7.85
2023-02-25T22:09:06.600Z,7.81
2023-02-25T22:11:34.592Z,7.77
2023-02-25T22:14:02.796Z,7.77
2023-02-25T22:16:29.792Z,7.75
2023-02-25T22:18:57.051Z,7.76
2023-02-25T22:21:31.133Z,7.77
2023-02-25T22:23:59.841Z,7.74
2023-02-25T22:26:28.546Z,7.72
2023-02-25T22:28:56.689Z,7.71
2023-02-25T22:31:23.716Z,7.72
2023-02-25T22:33:50.982Z,7.70
2023-02-25T22:36:18.187Z,7.68
2023-02-25T22:38:45.967Z,7.66
2023-02-25T22:41:17.647Z,7.65
2023-02-25T22:43:44.924Z,7.62
2023-02-25T22:46:16.417Z,7.64
2023-02-25T22:48:45.058Z,7.66
2023-02-25T22:51:12.135Z,7.65
2023-02-25T22:53:40.022Z,7.61
2023-02-25T22:56:09.066Z,7.58
2023-02-25T22:58:38.746Z,7.63
2023-02-25T23:01:06.374Z,7.59
2023-02-25T23:03:34.059Z,7.63
2023-02-25T23:06:00.849Z,7.61
2023-02-25T23:08:28.045Z,7.61
2023-02-25T23:10:54.937Z,7.59
2023-02-25T23:13:22.028Z,7.59
2023-02-25T23:15:49.026Z,7.59
2023-02-25T23:18:16.184Z,7.60
2023-02-25T23:20:43.025Z,7.59
2023-02-25T23:23:13.522Z,7.58
2023-02-25T23:25:40.964Z,7.59
2023-02-25T23:28:08.582Z,7.58
2023-02-25T23:30:39.058Z,7.61
2023-02-25T23:33:06.287Z,7.58
2023-02-25T23:35:33.759Z,7.58
2023-02-25T23:38:01.005Z,7.56
2023-02-25T23:40:28.946Z,7.55
2023-02-25T23:42:56.262Z,7.57
2023-02-25T23:45:23.122Z,7.53
2023-02-25T23:47:50.322Z,7.51
2023-02-25T23:50:17.748Z,7.52
2023-02-25T23:52:45.599Z,7.50
2023-02-25T23:55:12.762Z,7.54
2023-02-25T23:57:40.034Z,7.52
